Hutchinson County Airport - Borger, Texas, United States - FAA: BGD - ICAO: KBGD - IATA: BGD

 
  Longest Runway: 6,300 feet   Approach Types:    Customs Landing Rights Airport: No   Port of Entry: No

Local Forecast

This Afternoon (2/28): Cloudy, with a high near 24. Wind chill values between 9 and 14. South wind around 15 mph, with gusts as high as 25 mph.

Tonight (2/28): A slight chance of freezing rain and sleet. Mostly cloudy, with a low around 23. Wind chill values between 11 and 19. South wind around 15 mph, with gusts as high as 20 mph. Chance of precipitation is 20%.

Sunday (3/1): A slight chance of freezing rain before noon. Freezing drizzle is also possible. Mostly cloudy, with a high near 40. Wind chill values between 16 and 26. South southwest wind 10 to 15 mph becoming north in the afternoon. Chance of precipitation is 20%.

Sunday Night (3/1): A slight chance of freezing rain. Mostly cloudy, with a low around 26. Wind chill values between 17 and 22. Northeast wind 10 to 15 mph. Chance of precipitation is 20%.

Monday (3/2): A slight chance of rain or freezing rain. Mostly cloudy, with a high near 47. East wind 5 to 15 mph becoming south in the afternoon. Winds could gust as high as 20 mph. Chance of precipitation is 20%.

Monday Night (3/2): Mostly cloudy, with a low around 40. South southwest wind 15 to 20 mph, with gusts as high as 25 mph.

Tuesday (3/3): Mostly sunny, with a high near 60. Breezy, with a west southwest wind 20 to 25 mph becoming west northwest 10 to 15 mph in the afternoon. Winds could gust as high as 35 mph.



Current Weather (METAR)

2015/02/28 18:51 KBGD 281851Z AUTO 19011G17KT 10SM OVC024 M04/M08 A3015 RMK AO2 SLP241 T10441083

BORGER HUTCHINSON CO AIRPORT , TX, United States (KBGD) 35-42N 101-24W 927M Feb 28, 2015 - 01:51 PM EST / 2015.02.28 1851 UTC Wind: from the S (190 degrees) at 13 MPH (11 KT) gusting to 20 MPH (17 KT):0 Visibility: 10 mile(s):0 Sky conditions: overcast Temperature: 24.1 F (-4.4 C) Windchill: 12 F (-11 C):1 Dew Point: 17.1 F (-8.3 C) Relative Humidity: 74% Pressure (altimeter): 30.15 in. Hg (1020 hPa) ob: KBGD 281851Z AUTO 19011G17KT 10SM OVC024 M04/M08 A3015 RMK AO2 SLP241 T10441083 cycle: 19

Terminal Forecast (TAF)